DAUL/LOO METAR and TAF weather

Enter ICAO airport designator
Station Type Date Time Source
DAUL METAR 2019/08/25 18:00 UTC NOAA

DAUL 251800Z 35012KT CAVOK 35/07 Q1015


Station Type Date Time Source
DAUL Decoded METAR 2019/08/25 18:00 UTC NOAA

Station name not available
Aug 25, 2019 - 02:00 PM EDT / 2019.08.25 1800 UTC
Wind: from the N (350 degrees) at 14 MPH (12 KT):0
Visibility: greater than 7 mile(s):0
Temperature: 95 F (35 C)
Dew Point: 44 F (7 C)
Relative Humidity: 17%
Pressure (altimeter): 29.97 in. Hg (1015 hPa)
ob: DAUL 251800Z 35012KT CAVOK 35/07 Q1015
cycle: 18

Station Type Date Time Source
DAUL TAF 2017/11/09 18:03 UTC NOAA

TAF DAUL 091700Z 0918/1009 02012KT 9999 SCT030 SCT100 PROB40
TEMPO 0918/0924 35020G30KT 4000 -TSRA FEW030CB

Example: see airport list